sensor_id;sensor_type;location;lat;lon;timestamp;P1;durP1;ratioP1;P2;durP2;ratioP2
76320;SDS011;65132;52.088;5.402;2024-01-16T00:00:55;1.65;;;0.47;;
76320;SDS011;65132;52.088;5.402;2024-01-16T00:03:21;0.65;;;0.17;;
76320;SDS011;65132;52.088;5.402;2024-01-16T00:05:47;3.30;;;0.40;;
76320;SDS011;65132;52.088;5.402;2024-01-16T00:08:14;3.10;;;0.70;;
76320;SDS011;65132;52.088;5.402;2024-01-16T00:10:40;2.15;;;0.68;;
76320;SDS011;65132;52.088;5.402;2024-01-16T00:13:06;1.65;;;0.43;;
76320;SDS011;65132;52.088;5.402;2024-01-16T00:15:33;3.60;;;0.68;;
76320;SDS011;65132;52.088;5.402;2024-01-16T00:17:59;1.70;;;0.60;;
76320;SDS011;65132;52.088;5.402;2024-01-16T00:20:26;2.25;;;0.70;;
76320;SDS011;65132;52.088;5.402;2024-01-16T00:22:52;0.90;;;0.38;;
76320;SDS011;65132;52.088;5.402;2024-01-16T00:25:19;0.82;;;0.30;;
76320;SDS011;65132;52.088;5.402;2024-01-16T00:27:46;1.30;;;0.40;;
76320;SDS011;65132;52.088;5.402;2024-01-16T00:30:13;1.77;;;0.30;;
76320;SDS011;65132;52.088;5.402;2024-01-16T00:32:40;1.63;;;0.50;;
76320;SDS011;65132;52.088;5.402;2024-01-16T00:35:06;2.28;;;0.30;;
76320;SDS011;65132;52.088;5.402;2024-01-16T00:37:35;1.13;;;0.70;;
76320;SDS011;65132;52.088;5.402;2024-01-16T00:40:02;1.95;;;0.70;;
76320;SDS011;65132;52.088;5.402;2024-01-16T00:42:28;0.90;;;0.40;;
76320;SDS011;65132;52.088;5.402;2024-01-16T00:44:55;3.35;;;0.30;;
76320;SDS011;65132;52.088;5.402;2024-01-16T00:47:21;0.88;;;0.60;;
76320;SDS011;65132;52.088;5.402;2024-01-16T00:49:47;5.07;;;0.68;;
76320;SDS011;65132;52.088;5.402;2024-01-16T00:52:16;3.47;;;0.70;;
76320;SDS011;65132;52.088;5.402;2024-01-16T00:54:42;1.77;;;0.32;;
76320;SDS011;65132;52.088;5.402;2024-01-16T00:57:09;2.70;;;0.55;;
76320;SDS011;65132;52.088;5.402;2024-01-16T00:59:36;2.90;;;0.68;;
76320;SDS011;65132;52.088;5.402;2024-01-16T01:02:02;1.13;;;0.45;;
76320;SDS011;65132;52.088;5.402;2024-01-16T01:04:29;3.13;;;0.60;;
76320;SDS011;65132;52.088;5.402;2024-01-16T01:06:55;5.18;;;0.60;;
76320;SDS011;65132;52.088;5.402;2024-01-16T01:09:21;1.70;;;0.30;;
76320;SDS011;65132;52.088;5.402;2024-01-16T01:11:48;1.67;;;0.30;;
76320;SDS011;65132;52.088;5.402;2024-01-16T01:14:14;5.50;;;0.47;;
76320;SDS011;65132;52.088;5.402;2024-01-16T01:16:41;3.05;;;0.47;;
76320;SDS011;65132;52.088;5.402;2024-01-16T01:19:07;7.32;;;0.68;;
76320;SDS011;65132;52.088;5.402;2024-01-16T01:21:35;1.35;;;0.35;;
76320;SDS011;65132;52.088;5.402;2024-01-16T01:24:01;7.20;;;0.85;;
76320;SDS011;65132;52.088;5.402;2024-01-16T01:26:27;2.00;;;0.40;;
76320;SDS011;65132;52.088;5.402;2024-01-16T01:28:54;0.93;;;0.30;;
76320;SDS011;65132;52.088;5.402;2024-01-16T01:31:20;2.13;;;0.30;;
76320;SDS011;65132;52.088;5.402;2024-01-16T01:33:46;2.97;;;0.38;;
76320;SDS011;65132;52.088;5.402;2024-01-16T01:36:13;1.20;;;0.40;;
76320;SDS011;65132;52.088;5.402;2024-01-16T01:38:39;3.05;;;0.28;;
76320;SDS011;65132;52.088;5.402;2024-01-16T01:41:06;1.88;;;0.30;;
76320;SDS011;65132;52.088;5.402;2024-01-16T01:43:34;6.93;;;0.63;;
76320;SDS011;65132;52.088;5.402;2024-01-16T01:48:29;0.85;;;0.20;;
76320;SDS011;65132;52.088;5.402;2024-01-16T01:50:56;1.75;;;0.60;;
76320;SDS011;65132;52.088;5.402;2024-01-16T01:53:22;1.05;;;0.20;;
76320;SDS011;65132;52.088;5.402;2024-01-16T01:55:49;7.03;;;0.50;;
76320;SDS011;65132;52.088;5.402;2024-01-16T01:58:17;2.45;;;0.63;;
76320;SDS011;65132;52.088;5.402;2024-01-16T02:00:44;6.70;;;0.98;;
76320;SDS011;65132;52.088;5.402;2024-01-16T02:03:10;2.65;;;0.13;;
76320;SDS011;65132;52.088;5.402;2024-01-16T02:05:37;3.13;;;0.90;;
76320;SDS011;65132;52.088;5.402;2024-01-16T02:08:04;1.95;;;0.20;;
76320;SDS011;65132;52.088;5.402;2024-01-16T02:10:31;0.82;;;0.22;;
76320;SDS011;65132;52.088;5.402;2024-01-16T02:12:57;3.03;;;0.50;;
76320;SDS011;65132;52.088;5.402;2024-01-16T02:15:24;2.15;;;0.45;;
76320;SDS011;65132;52.088;5.402;2024-01-16T02:17:50;4.13;;;0.40;;
76320;SDS011;65132;52.088;5.402;2024-01-16T02:20:17;0.80;;;0.50;;
76320;SDS011;65132;52.088;5.402;2024-01-16T02:22:45;2.75;;;0.25;;
76320;SDS011;65132;52.088;5.402;2024-01-16T02:25:12;3.67;;;0.38;;
76320;SDS011;65132;52.088;5.402;2024-01-16T02:27:38;1.55;;;0.35;;
76320;SDS011;65132;52.088;5.402;2024-01-16T02:30:05;2.05;;;0.40;;
76320;SDS011;65132;52.088;5.402;2024-01-16T02:32:31;1.00;;;0.20;;
76320;SDS011;65132;52.088;5.402;2024-01-16T02:34:58;1.25;;;0.20;;
76320;SDS011;65132;52.088;5.402;2024-01-16T02:37:24;0.77;;;0.20;;
76320;SDS011;65132;52.088;5.402;2024-01-16T02:39:50;3.40;;;0.55;;
76320;SDS011;65132;52.088;5.402;2024-01-16T02:42:17;1.98;;;0.40;;
76320;SDS011;65132;52.088;5.402;2024-01-16T02:44:43;0.70;;;0.20;;
76320;SDS011;65132;52.088;5.402;2024-01-16T02:47:10;1.08;;;0.40;;
76320;SDS011;65132;52.088;5.402;2024-01-16T02:49:36;3.20;;;0.35;;
76320;SDS011;65132;52.088;5.402;2024-01-16T02:52:03;0.57;;;0.30;;
76320;SDS011;65132;52.088;5.402;2024-01-16T02:54:29;1.77;;;0.40;;
76320;SDS011;65132;52.088;5.402;2024-01-16T02:56:56;0.73;;;0.28;;
76320;SDS011;65132;52.088;5.402;2024-01-16T02:59:22;2.58;;;0.30;;
76320;SDS011;65132;52.088;5.402;2024-01-16T03:01:48;3.00;;;0.40;;
76320;SDS011;65132;52.088;5.402;2024-01-16T03:04:15;0.73;;;0.22;;
76320;SDS011;65132;52.088;5.402;2024-01-16T03:06:41;1.05;;;0.43;;
76320;SDS011;65132;52.088;5.402;2024-01-16T03:09:08;1.77;;;0.35;;
76320;SDS011;65132;52.088;5.402;2024-01-16T03:11:34;1.52;;;0.22;;
76320;SDS011;65132;52.088;5.402;2024-01-16T03:14:01;1.48;;;0.30;;
76320;SDS011;65132;52.088;5.402;2024-01-16T03:16:27;3.10;;;0.35;;
76320;SDS011;65132;52.088;5.402;2024-01-16T03:18:54;1.58;;;0.75;;
76320;SDS011;65132;52.088;5.402;2024-01-16T03:21:20;0.90;;;0.17;;
76320;SDS011;65132;52.088;5.402;2024-01-16T03:23:46;1.45;;;0.38;;
76320;SDS011;65132;52.088;5.402;2024-01-16T03:26:13;0.93;;;0.35;;
76320;SDS011;65132;52.088;5.402;2024-01-16T03:28:40;1.85;;;0.28;;
76320;SDS011;65132;52.088;5.402;2024-01-16T03:31:07;1.98;;;0.25;;
76320;SDS011;65132;52.088;5.402;2024-01-16T03:33:33;4.07;;;0.40;;
76320;SDS011;65132;52.088;5.402;2024-01-16T03:36:00;0.57;;;0.20;;
76320;SDS011;65132;52.088;5.402;2024-01-16T03:38:27;3.47;;;0.50;;
76320;SDS011;65132;52.088;5.402;2024-01-16T03:40:53;2.08;;;0.20;;
76320;SDS011;65132;52.088;5.402;2024-01-16T03:43:20;1.17;;;0.10;;
76320;SDS011;65132;52.088;5.402;2024-01-16T03:45:46;1.95;;;0.28;;
76320;SDS011;65132;52.088;5.402;2024-01-16T03:48:12;1.08;;;0.28;;
76320;SDS011;65132;52.088;5.402;2024-01-16T03:50:39;1.00;;;0.45;;
76320;SDS011;65132;52.088;5.402;2024-01-16T03:53:05;1.00;;;0.10;;
76320;SDS011;65132;52.088;5.402;2024-01-16T03:55:32;0.95;;;0.22;;
76320;SDS011;65132;52.088;5.402;2024-01-16T03:57:58;2.72;;;0.20;;
76320;SDS011;65132;52.088;5.402;2024-01-16T04:00:24;1.02;;;0.45;;
76320;SDS011;65132;52.088;5.402;2024-01-16T04:02:51;1.55;;;0.10;;
76320;SDS011;65132;52.088;5.402;2024-01-16T04:05:17;2.95;;;0.30;;
76320;SDS011;65132;52.088;5.402;2024-01-16T04:07:44;4.88;;;0.40;;
76320;SDS011;65132;52.088;5.402;2024-01-16T04:10:10;0.50;;;0.30;;
76320;SDS011;65132;52.088;5.402;2024-01-16T04:12:36;1.02;;;0.10;;
76320;SDS011;65132;52.088;5.402;2024-01-16T04:15:03;2.10;;;0.40;;
76320;SDS011;65132;52.088;5.402;2024-01-16T04:17:29;1.50;;;0.30;;
76320;SDS011;65132;52.088;5.402;2024-01-16T04:19:56;1.52;;;0.30;;
76320;SDS011;65132;52.088;5.402;2024-01-16T04:22:23;2.15;;;0.32;;
76320;SDS011;65132;52.088;5.402;2024-01-16T04:24:49;1.30;;;0.50;;
76320;SDS011;65132;52.088;5.402;2024-01-16T04:27:16;1.35;;;0.50;;
76320;SDS011;65132;52.088;5.402;2024-01-16T04:29:42;1.15;;;0.40;;
76320;SDS011;65132;52.088;5.402;2024-01-16T04:32:08;2.63;;;0.50;;
76320;SDS011;65132;52.088;5.402;2024-01-16T04:34:35;3.53;;;0.60;;
76320;SDS011;65132;52.088;5.402;2024-01-16T04:37:01;2.13;;;0.52;;
76320;SDS011;65132;52.088;5.402;2024-01-16T04:39:28;1.13;;;0.32;;
76320;SDS011;65132;52.088;5.402;2024-01-16T04:41:54;2.30;;;0.68;;
76320;SDS011;65132;52.088;5.402;2024-01-16T04:44:20;1.77;;;0.40;;
76320;SDS011;65132;52.088;5.402;2024-01-16T04:46:47;2.95;;;0.70;;
76320;SDS011;65132;52.088;5.402;2024-01-16T04:49:13;4.13;;;0.95;;
76320;SDS011;65132;52.088;5.402;2024-01-16T04:51:40;0.88;;;0.30;;
76320;SDS011;65132;52.088;5.402;2024-01-16T04:54:06;0.50;;;0.20;;
76320;SDS011;65132;52.088;5.402;2024-01-16T04:56:33;2.22;;;0.90;;
76320;SDS011;65132;52.088;5.402;2024-01-16T04:58:59;3.72;;;0.70;;
76320;SDS011;65132;52.088;5.402;2024-01-16T05:01:25;2.00;;;0.22;;
76320;SDS011;65132;52.088;5.402;2024-01-16T05:03:52;2.10;;;0.52;;
76320;SDS011;65132;52.088;5.402;2024-01-16T05:06:18;2.50;;;0.50;;
76320;SDS011;65132;52.088;5.402;2024-01-16T05:08:45;5.55;;;0.70;;
76320;SDS011;65132;52.088;5.402;2024-01-16T05:11:11;1.65;;;0.40;;
76320;SDS011;65132;52.088;5.402;2024-01-16T05:13:37;0.88;;;0.43;;
76320;SDS011;65132;52.088;5.402;2024-01-16T05:16:05;3.95;;;0.70;;
76320;SDS011;65132;52.088;5.402;2024-01-16T05:18:32;5.97;;;1.00;;
76320;SDS011;65132;52.088;5.402;2024-01-16T05:20:58;2.13;;;0.75;;
76320;SDS011;65132;52.088;5.402;2024-01-16T05:23:26;1.90;;;0.70;;
76320;SDS011;65132;52.088;5.402;2024-01-16T05:25:52;2.72;;;0.80;;
76320;SDS011;65132;52.088;5.402;2024-01-16T05:28:19;5.75;;;0.93;;
76320;SDS011;65132;52.088;5.402;2024-01-16T05:30:45;5.50;;;1.20;;
76320;SDS011;65132;52.088;5.402;2024-01-16T05:33:11;3.05;;;0.95;;
76320;SDS011;65132;52.088;5.402;2024-01-16T05:35:38;2.97;;;0.75;;
76320;SDS011;65132;52.088;5.402;2024-01-16T05:38:05;2.15;;;0.73;;
76320;SDS011;65132;52.088;5.402;2024-01-16T05:40:32;6.53;;;0.82;;
76320;SDS011;65132;52.088;5.402;2024-01-16T05:42:59;2.92;;;1.05;;
76320;SDS011;65132;52.088;5.402;2024-01-16T05:45:25;4.38;;;0.90;;
76320;SDS011;65132;52.088;5.402;2024-01-16T05:47:52;3.08;;;1.00;;
76320;SDS011;65132;52.088;5.402;2024-01-16T05:50:18;2.05;;;0.60;;
76320;SDS011;65132;52.088;5.402;2024-01-16T05:52:45;6.63;;;1.10;;
76320;SDS011;65132;52.088;5.402;2024-01-16T05:55:12;3.78;;;1.30;;
76320;SDS011;65132;52.088;5.402;2024-01-16T05:57:39;4.40;;;1.38;;
76320;SDS011;65132;52.088;5.402;2024-01-16T06:00:07;3.42;;;1.00;;
76320;SDS011;65132;52.088;5.402;2024-01-16T06:02:36;3.35;;;1.38;;
76320;SDS011;65132;52.088;5.402;2024-01-16T06:05:11;4.07;;;1.48;;
76320;SDS011;65132;52.088;5.402;2024-01-16T06:07:37;2.33;;;1.08;;
76320;SDS011;65132;52.088;5.402;2024-01-16T06:10:04;3.08;;;1.13;;
76320;SDS011;65132;52.088;5.402;2024-01-16T06:12:32;4.95;;;1.58;;
76320;SDS011;65132;52.088;5.402;2024-01-16T06:14:59;4.38;;;1.30;;
76320;SDS011;65132;52.088;5.402;2024-01-16T06:17:30;3.08;;;1.45;;
76320;SDS011;65132;52.088;5.402;2024-01-16T06:19:56;2.92;;;1.42;;
76320;SDS011;65132;52.088;5.402;2024-01-16T06:22:23;2.92;;;1.25;;
76320;SDS011;65132;52.088;5.402;2024-01-16T06:24:49;5.15;;;1.50;;
76320;SDS011;65132;52.088;5.402;2024-01-16T06:27:15;3.67;;;0.93;;
76320;SDS011;65132;52.088;5.402;2024-01-16T06:29:42;3.00;;;1.55;;
76320;SDS011;65132;52.088;5.402;2024-01-16T06:32:08;4.38;;;1.88;;
76320;SDS011;65132;52.088;5.402;2024-01-16T06:34:34;6.10;;;2.10;;
76320;SDS011;65132;52.088;5.402;2024-01-16T06:37:01;6.60;;;2.38;;
76320;SDS011;65132;52.088;5.402;2024-01-16T06:39:27;3.67;;;1.63;;
76320;SDS011;65132;52.088;5.402;2024-01-16T06:41:53;6.35;;;2.33;;
76320;SDS011;65132;52.088;5.402;2024-01-16T06:44:20;5.00;;;2.13;;
76320;SDS011;65132;52.088;5.402;2024-01-16T06:46:46;4.25;;;2.20;;
76320;SDS011;65132;52.088;5.402;2024-01-16T06:49:13;7.45;;;2.95;;
76320;SDS011;65132;52.088;5.402;2024-01-16T06:51:39;6.00;;;2.72;;
76320;SDS011;65132;52.088;5.402;2024-01-16T06:54:05;8.82;;;2.97;;
76320;SDS011;65132;52.088;5.402;2024-01-16T06:56:32;4.97;;;2.80;;
76320;SDS011;65132;52.088;5.402;2024-01-16T06:58:58;7.20;;;3.10;;
76320;SDS011;65132;52.088;5.402;2024-01-16T07:01:25;5.82;;;2.38;;
76320;SDS011;65132;52.088;5.402;2024-01-16T07:03:53;5.53;;;2.25;;
76320;SDS011;65132;52.088;5.402;2024-01-16T07:06:19;6.18;;;2.83;;
76320;SDS011;65132;52.088;5.402;2024-01-16T07:08:46;12.07;;;3.92;;
76320;SDS011;65132;52.088;5.402;2024-01-16T07:11:13;9.32;;;3.58;;
76320;SDS011;65132;52.088;5.402;2024-01-16T07:13:40;8.48;;;3.30;;
76320;SDS011;65132;52.088;5.402;2024-01-16T07:16:09;6.85;;;3.17;;
76320;SDS011;65132;52.088;5.402;2024-01-16T07:18:36;9.00;;;3.72;;
76320;SDS011;65132;52.088;5.402;2024-01-16T07:21:02;5.03;;;2.22;;
76320;SDS011;65132;52.088;5.402;2024-01-16T07:23:29;6.78;;;2.80;;
76320;SDS011;65132;52.088;5.402;2024-01-16T07:25:55;10.57;;;2.40;;
76320;SDS011;65132;52.088;5.402;2024-01-16T07:28:24;11.13;;;3.55;;
76320;SDS011;65132;52.088;5.402;2024-01-16T07:30:52;6.70;;;2.83;;
76320;SDS011;65132;52.088;5.402;2024-01-16T07:33:21;5.93;;;2.53;;
76320;SDS011;65132;52.088;5.402;2024-01-16T07:35:47;6.05;;;2.53;;
76320;SDS011;65132;52.088;5.402;2024-01-16T07:38:14;7.70;;;3.05;;
76320;SDS011;65132;52.088;5.402;2024-01-16T07:40:40;8.88;;;3.42;;
76320;SDS011;65132;52.088;5.402;2024-01-16T07:43:07;4.05;;;1.98;;
76320;SDS011;65132;52.088;5.402;2024-01-16T07:45:33;8.35;;;2.55;;
76320;SDS011;65132;52.088;5.402;2024-01-16T07:47:59;5.70;;;2.63;;
76320;SDS011;65132;52.088;5.402;2024-01-16T07:50:26;5.55;;;2.70;;
76320;SDS011;65132;52.088;5.402;2024-01-16T07:52:52;9.77;;;3.85;;
76320;SDS011;65132;52.088;5.402;2024-01-16T07:55:19;5.55;;;2.78;;
76320;SDS011;65132;52.088;5.402;2024-01-16T07:57:49;6.35;;;2.33;;
76320;SDS011;65132;52.088;5.402;2024-01-16T08:00:16;7.38;;;2.58;;
76320;SDS011;65132;52.088;5.402;2024-01-16T08:02:42;6.20;;;3.13;;
76320;SDS011;65132;52.088;5.402;2024-01-16T08:05:08;6.68;;;3.53;;
76320;SDS011;65132;52.088;5.402;2024-01-16T08:07:35;7.80;;;2.88;;
76320;SDS011;65132;52.088;5.402;2024-01-16T08:10:02;14.80;;;4.03;;
76320;SDS011;65132;52.088;5.402;2024-01-16T08:12:28;10.38;;;3.85;;
76320;SDS011;65132;52.088;5.402;2024-01-16T08:14:54;5.97;;;2.95;;
76320;SDS011;65132;52.088;5.402;2024-01-16T08:17:21;10.05;;;3.28;;
76320;SDS011;65132;52.088;5.402;2024-01-16T08:19:47;6.43;;;3.10;;
76320;SDS011;65132;52.088;5.402;2024-01-16T08:22:13;9.57;;;3.22;;
76320;SDS011;65132;52.088;5.402;2024-01-16T08:24:40;7.85;;;3.65;;
76320;SDS011;65132;52.088;5.402;2024-01-16T08:27:06;6.47;;;3.20;;
76320;SDS011;65132;52.088;5.402;2024-01-16T08:29:32;7.72;;;2.38;;
76320;SDS011;65132;52.088;5.402;2024-01-16T08:31:59;8.05;;;2.30;;
76320;SDS011;65132;52.088;5.402;2024-01-16T08:34:25;10.10;;;2.33;;
76320;SDS011;65132;52.088;5.402;2024-01-16T08:36:52;3.33;;;1.67;;
76320;SDS011;65132;52.088;5.402;2024-01-16T08:39:18;5.65;;;2.22;;
76320;SDS011;65132;52.088;5.402;2024-01-16T08:41:44;8.07;;;2.80;;
76320;SDS011;65132;52.088;5.402;2024-01-16T08:44:11;4.82;;;2.65;;
76320;SDS011;65132;52.088;5.402;2024-01-16T08:46:37;6.75;;;2.47;;
76320;SDS011;65132;52.088;5.402;2024-01-16T08:49:03;8.65;;;1.67;;
76320;SDS011;65132;52.088;5.402;2024-01-16T08:51:30;8.60;;;2.42;;
76320;SDS011;65132;52.088;5.402;2024-01-16T08:53:56;3.70;;;1.75;;
76320;SDS011;65132;52.088;5.402;2024-01-16T08:56:22;7.93;;;1.92;;
76320;SDS011;65132;52.088;5.402;2024-01-16T08:58:49;3.55;;;1.70;;
76320;SDS011;65132;52.088;5.402;2024-01-16T09:01:15;6.05;;;1.90;;
76320;SDS011;65132;52.088;5.402;2024-01-16T09:03:42;4.22;;;1.33;;
76320;SDS011;65132;52.088;5.402;2024-01-16T09:06:08;3.88;;;1.15;;
76320;SDS011;65132;52.088;5.402;2024-01-16T09:08:35;3.63;;;1.55;;
76320;SDS011;65132;52.088;5.402;2024-01-16T09:11:02;3.88;;;1.50;;
76320;SDS011;65132;52.088;5.402;2024-01-16T09:13:28;7.25;;;1.17;;
76320;SDS011;65132;52.088;5.402;2024-01-16T09:15:54;3.13;;;1.85;;
76320;SDS011;65132;52.088;5.402;2024-01-16T09:18:20;2.97;;;1.30;;
76320;SDS011;65132;52.088;5.402;2024-01-16T09:20:47;3.72;;;1.77;;
76320;SDS011;65132;52.088;5.402;2024-01-16T09:23:13;4.30;;;1.58;;
76320;SDS011;65132;52.088;5.402;2024-01-16T09:25:40;4.88;;;1.42;;
76320;SDS011;65132;52.088;5.402;2024-01-16T09:28:06;8.20;;;1.58;;
76320;SDS011;65132;52.088;5.402;2024-01-16T09:30:33;3.78;;;1.73;;
76320;SDS011;65132;52.088;5.402;2024-01-16T09:32:59;6.10;;;1.35;;
76320;SDS011;65132;52.088;5.402;2024-01-16T09:35:28;5.00;;;1.98;;
76320;SDS011;65132;52.088;5.402;2024-01-16T09:37:54;3.45;;;1.48;;
76320;SDS011;65132;52.088;5.402;2024-01-16T09:40:21;3.67;;;0.98;;
76320;SDS011;65132;52.088;5.402;2024-01-16T09:42:47;6.05;;;1.65;;
76320;SDS011;65132;52.088;5.402;2024-01-16T09:45:13;9.45;;;2.13;;
76320;SDS011;65132;52.088;5.402;2024-01-16T09:47:45;6.72;;;1.50;;
76320;SDS011;65132;52.088;5.402;2024-01-16T09:50:13;3.97;;;1.42;;
76320;SDS011;65132;52.088;5.402;2024-01-16T09:52:40;4.88;;;1.48;;
76320;SDS011;65132;52.088;5.402;2024-01-16T09:55:07;4.32;;;1.30;;
76320;SDS011;65132;52.088;5.402;2024-01-16T09:57:33;4.95;;;1.30;;
76320;SDS011;65132;52.088;5.402;2024-01-16T10:00:00;4.95;;;1.30;;
76320;SDS011;65132;52.088;5.402;2024-01-16T10:02:27;3.13;;;1.67;;
76320;SDS011;65132;52.088;5.402;2024-01-16T10:04:54;4.93;;;1.70;;
76320;SDS011;65132;52.088;5.402;2024-01-16T10:07:20;3.33;;;1.23;;
76320;SDS011;65132;52.088;5.402;2024-01-16T10:09:47;2.90;;;1.33;;
76320;SDS011;65132;52.088;5.402;2024-01-16T10:12:14;6.15;;;1.48;;
76320;SDS011;65132;52.088;5.402;2024-01-16T10:14:40;5.25;;;1.42;;
76320;SDS011;65132;52.088;5.402;2024-01-16T10:17:07;5.35;;;1.33;;
76320;SDS011;65132;52.088;5.402;2024-01-16T10:19:34;2.45;;;1.50;;
76320;SDS011;65132;52.088;5.402;2024-01-16T10:22:13;3.97;;;1.40;;
76320;SDS011;65132;52.088;5.402;2024-01-16T10:24:47;2.85;;;1.52;;
76320;SDS011;65132;52.088;5.402;2024-01-16T10:27:16;3.25;;;1.38;;
76320;SDS011;65132;52.088;5.402;2024-01-16T10:29:55;3.63;;;1.55;;
76320;SDS011;65132;52.088;5.402;2024-01-16T10:32:32;4.75;;;1.90;;
76320;SDS011;65132;52.088;5.402;2024-01-16T10:37:29;6.57;;;1.70;;
76320;SDS011;65132;52.088;5.402;2024-01-16T10:39:55;2.53;;;1.45;;
76320;SDS011;65132;52.088;5.402;2024-01-16T10:42:24;3.10;;;1.08;;
76320;SDS011;65132;52.088;5.402;2024-01-16T10:44:54;5.05;;;1.52;;
76320;SDS011;65132;52.088;5.402;2024-01-16T10:47:21;6.07;;;1.52;;
76320;SDS011;65132;52.088;5.402;2024-01-16T10:49:47;5.65;;;1.60;;
76320;SDS011;65132;52.088;5.402;2024-01-16T10:52:14;3.72;;;1.48;;
76320;SDS011;65132;52.088;5.402;2024-01-16T10:54:41;15.27;;;6.00;;
76320;SDS011;65132;52.088;5.402;2024-01-16T10:57:08;5.05;;;1.58;;
76320;SDS011;65132;52.088;5.402;2024-01-16T10:59:36;3.78;;;1.30;;
76320;SDS011;65132;52.088;5.402;2024-01-16T11:02:03;6.20;;;1.92;;
76320;SDS011;65132;52.088;5.402;2024-01-16T11:04:31;4.13;;;1.95;;
76320;SDS011;65132;52.088;5.402;2024-01-16T11:06:57;3.45;;;0.90;;
76320;SDS011;65132;52.088;5.402;2024-01-16T11:09:24;6.82;;;2.55;;
76320;SDS011;65132;52.088;5.402;2024-01-16T11:11:51;4.25;;;2.28;;
76320;SDS011;65132;52.088;5.402;2024-01-16T11:14:20;3.45;;;1.45;;
76320;SDS011;65132;52.088;5.402;2024-01-16T11:16:49;2.95;;;0.80;;
76320;SDS011;65132;52.088;5.402;2024-01-16T11:19:16;4.35;;;1.05;;
76320;SDS011;65132;52.088;5.402;2024-01-16T11:22:04;3.90;;;1.73;;
76320;SDS011;65132;52.088;5.402;2024-01-16T11:24:30;2.60;;;1.08;;
76320;SDS011;65132;52.088;5.402;2024-01-16T11:26:57;3.67;;;1.52;;
76320;SDS011;65132;52.088;5.402;2024-01-16T11:31:53;5.35;;;2.17;;
76320;SDS011;65132;52.088;5.402;2024-01-16T11:37:12;5.55;;;2.17;;
76320;SDS011;65132;52.088;5.402;2024-01-16T11:39:39;4.07;;;0.90;;
76320;SDS011;65132;52.088;5.402;2024-01-16T11:42:05;3.72;;;2.17;;
76320;SDS011;65132;52.088;5.402;2024-01-16T11:44:50;4.68;;;1.10;;
76320;SDS011;65132;52.088;5.402;2024-01-16T11:47:23;2.33;;;0.75;;
76320;SDS011;65132;52.088;5.402;2024-01-16T11:49:51;5.03;;;0.90;;
76320;SDS011;65132;52.088;5.402;2024-01-16T11:52:38;4.82;;;1.80;;
76320;SDS011;65132;52.088;5.402;2024-01-16T11:57:59;2.67;;;0.80;;
76320;SDS011;65132;52.088;5.402;2024-01-16T12:00:29;4.78;;;1.83;;
76320;SDS011;65132;52.088;5.402;2024-01-16T12:03:02;5.13;;;2.00;;
76320;SDS011;65132;52.088;5.402;2024-01-16T12:05:29;5.85;;;1.35;;
76320;SDS011;65132;52.088;5.402;2024-01-16T12:07:55;11.35;;;6.47;;
76320;SDS011;65132;52.088;5.402;2024-01-16T12:10:22;4.00;;;1.38;;
76320;SDS011;65132;52.088;5.402;2024-01-16T12:12:49;9.35;;;5.68;;
76320;SDS011;65132;52.088;5.402;2024-01-16T12:15:19;4.93;;;2.15;;
76320;SDS011;65132;52.088;5.402;2024-01-16T12:17:53;4.50;;;2.65;;
76320;SDS011;65132;52.088;5.402;2024-01-16T12:20:20;4.50;;;2.05;;
76320;SDS011;65132;52.088;5.402;2024-01-16T12:22:53;2.97;;;1.60;;
76320;SDS011;65132;52.088;5.402;2024-01-16T12:25:19;6.90;;;1.52;;
76320;SDS011;65132;52.088;5.402;2024-01-16T12:27:46;5.20;;;2.13;;
76320;SDS011;65132;52.088;5.402;2024-01-16T12:30:13;3.78;;;1.67;;
76320;SDS011;65132;52.088;5.402;2024-01-16T12:32:40;7.53;;;1.60;;
76320;SDS011;65132;52.088;5.402;2024-01-16T12:35:06;5.00;;;1.55;;
76320;SDS011;65132;52.088;5.402;2024-01-16T12:37:33;5.00;;;1.80;;
76320;SDS011;65132;52.088;5.402;2024-01-16T12:39:59;4.88;;;1.73;;
76320;SDS011;65132;52.088;5.402;2024-01-16T12:42:25;2.80;;;1.85;;
76320;SDS011;65132;52.088;5.402;2024-01-16T12:44:52;3.47;;;1.20;;
76320;SDS011;65132;52.088;5.402;2024-01-16T12:47:18;5.53;;;1.42;;
76320;SDS011;65132;52.088;5.402;2024-01-16T12:49:45;3.58;;;1.27;;
76320;SDS011;65132;52.088;5.402;2024-01-16T12:52:18;3.15;;;1.40;;
76320;SDS011;65132;52.088;5.402;2024-01-16T12:54:47;3.40;;;0.93;;
76320;SDS011;65132;52.088;5.402;2024-01-16T12:57:16;4.97;;;1.42;;
76320;SDS011;65132;52.088;5.402;2024-01-16T12:59:43;4.00;;;1.90;;
76320;SDS011;65132;52.088;5.402;2024-01-16T13:02:10;3.10;;;1.58;;
76320;SDS011;65132;52.088;5.402;2024-01-16T13:04:37;4.45;;;1.50;;
76320;SDS011;65132;52.088;5.402;2024-01-16T13:07:05;5.88;;;2.20;;
76320;SDS011;65132;52.088;5.402;2024-01-16T13:09:32;6.25;;;1.63;;
76320;SDS011;65132;52.088;5.402;2024-01-16T13:11:58;4.15;;;1.33;;
76320;SDS011;65132;52.088;5.402;2024-01-16T13:14:25;4.75;;;1.67;;
76320;SDS011;65132;52.088;5.402;2024-01-16T13:16:52;4.20;;;1.55;;
76320;SDS011;65132;52.088;5.402;2024-01-16T13:19:19;3.85;;;1.23;;
76320;SDS011;65132;52.088;5.402;2024-01-16T13:21:46;3.15;;;1.25;;
76320;SDS011;65132;52.088;5.402;2024-01-16T13:24:13;2.83;;;1.30;;
76320;SDS011;65132;52.088;5.402;2024-01-16T13:26:40;4.47;;;1.30;;
76320;SDS011;65132;52.088;5.402;2024-01-16T13:29:06;4.00;;;1.33;;
76320;SDS011;65132;52.088;5.402;2024-01-16T13:31:33;4.05;;;0.93;;
76320;SDS011;65132;52.088;5.402;2024-01-16T13:34:01;4.32;;;2.38;;
76320;SDS011;65132;52.088;5.402;2024-01-16T13:36:27;6.57;;;3.92;;
76320;SDS011;65132;52.088;5.402;2024-01-16T13:39:15;8.07;;;3.25;;
76320;SDS011;65132;52.088;5.402;2024-01-16T13:41:42;4.15;;;2.05;;
76320;SDS011;65132;52.088;5.402;2024-01-16T13:44:09;4.30;;;1.85;;
76320;SDS011;65132;52.088;5.402;2024-01-16T13:46:35;4.65;;;1.15;;
76320;SDS011;65132;52.088;5.402;2024-01-16T13:49:21;4.10;;;1.67;;
76320;SDS011;65132;52.088;5.402;2024-01-16T13:51:48;2.22;;;0.88;;
76320;SDS011;65132;52.088;5.402;2024-01-16T13:54:14;8.43;;;1.80;;
76320;SDS011;65132;52.088;5.402;2024-01-16T13:56:40;5.78;;;1.63;;
76320;SDS011;65132;52.088;5.402;2024-01-16T13:59:28;3.30;;;0.93;;
76320;SDS011;65132;52.088;5.402;2024-01-16T14:01:54;4.20;;;1.85;;
76320;SDS011;65132;52.088;5.402;2024-01-16T14:04:21;4.05;;;1.60;;
76320;SDS011;65132;52.088;5.402;2024-01-16T14:06:47;3.63;;;1.60;;
76320;SDS011;65132;52.088;5.402;2024-01-16T14:09:36;4.38;;;1.88;;
76320;SDS011;65132;52.088;5.402;2024-01-16T14:12:03;4.88;;;1.33;;
76320;SDS011;65132;52.088;5.402;2024-01-16T14:14:29;4.75;;;2.15;;
76320;SDS011;65132;52.088;5.402;2024-01-16T14:16:56;4.53;;;1.55;;
76320;SDS011;65132;52.088;5.402;2024-01-16T14:19:27;2.65;;;1.30;;
76320;SDS011;65132;52.088;5.402;2024-01-16T14:21:53;3.85;;;1.85;;
76320;SDS011;65132;52.088;5.402;2024-01-16T14:24:20;5.65;;;1.27;;
76320;SDS011;65132;52.088;5.402;2024-01-16T14:26:46;2.58;;;1.20;;
76320;SDS011;65132;52.088;5.402;2024-01-16T14:29:13;5.70;;;1.77;;
76320;SDS011;65132;52.088;5.402;2024-01-16T14:31:39;5.45;;;1.60;;
76320;SDS011;65132;52.088;5.402;2024-01-16T14:34:07;5.57;;;2.00;;
76320;SDS011;65132;52.088;5.402;2024-01-16T14:36:33;2.85;;;1.50;;
76320;SDS011;65132;52.088;5.402;2024-01-16T14:38:59;3.00;;;1.55;;
76320;SDS011;65132;52.088;5.402;2024-01-16T14:41:26;5.13;;;1.77;;
76320;SDS011;65132;52.088;5.402;2024-01-16T14:43:52;3.55;;;1.10;;
76320;SDS011;65132;52.088;5.402;2024-01-16T14:46:19;4.32;;;1.70;;
76320;SDS011;65132;52.088;5.402;2024-01-16T14:48:49;4.22;;;1.60;;
76320;SDS011;65132;52.088;5.402;2024-01-16T14:51:15;6.82;;;1.52;;
76320;SDS011;65132;52.088;5.402;2024-01-16T14:53:42;3.38;;;1.40;;
76320;SDS011;65132;52.088;5.402;2024-01-16T14:56:08;8.20;;;1.40;;
76320;SDS011;65132;52.088;5.402;2024-01-16T14:58:35;2.95;;;1.02;;
76320;SDS011;65132;52.088;5.402;2024-01-16T15:01:01;6.18;;;1.42;;